Time;durP1;ratioP1;P1;durP2;ratioP2;P2;SDS_P1;SDS_P2;PMS_P1;PMS_P2;Temp;Humidity;BMP_temperature;BMP_pressure;BME280_temperature;BME280_humidity;BME280_pressure;Samples;Min_cycle;Max_cycle;Signal;HPM_P1;HPM_P2
2023/10/12 00:05:00;;;;;;;5.72;2.38;;;;;;;20.41;49.52;101194.16;16119355;19;130554;-46
2023/10/12 00:10:24;;;;;;;4.57;1.95;;;;;;;20.39;49.92;101197.16;16113119;19;129569;-47
2023/10/12 00:15:46;;;;;;;4.35;1.95;;;;;;;20.39;49.51;101190.78;16114397;19;129450;-49
2023/10/12 00:21:14;;;;;;;5.03;1.90;;;;;;;20.39;50.05;101229.66;16110737;19;130046;-48
2023/10/12 00:26:37;;;;;;;2.88;1.92;;;;;;;20.38;49.82;101236.31;16115438;19;134331;-47
2023/10/12 00:32:02;;;;;;;2.35;1.80;;;;;;;20.38;49.83;101236.31;16118081;19;130800;-53
2023/10/12 00:37:24;;;;;;;2.07;1.53;;;;;;;20.38;49.58;101244.66;16117112;19;131576;-48
2023/10/12 00:42:51;;;;;;;2.92;1.63;;;;;;;20.38;49.96;101250.22;16121991;19;130502;-51
2023/10/12 00:48:16;;;;;;;2.30;1.77;;;;;;;20.37;49.95;101249.34;16120215;19;130617;-47
2023/10/12 00:53:38;;;;;;;3.35;1.80;;;;;;;20.37;49.73;101248.53;16117680;19;129455;-49
2023/10/12 00:59:02;;;;;;;3.67;2.00;;;;;;;20.36;50.05;101244.06;16118572;19;129954;-46
2023/10/12 01:04:25;;;;;;;2.17;1.73;;;;;;;20.35;49.52;101250.72;16114448;19;129749;-47
2023/10/12 01:09:48;;;;;;;3.28;2.03;;;;;;;20.36;49.70;101257.94;16112774;19;128965;-48
2023/10/12 01:15:11;;;;;;;2.58;1.67;;;;;;;20.35;49.79;101256.25;16119465;19;130939;-47
2023/10/12 01:20:39;;;;;;;2.63;1.67;;;;;;;20.35;50.11;101253.50;16116973;19;130642;-47
2023/10/12 01:26:10;;;;;;;2.97;1.88;;;;;;;20.34;49.88;101257.34;16113967;19;129722;-46
2023/10/12 01:31:32;;;;;;;3.05;1.60;;;;;;;20.32;49.66;101260.41;16117646;19;135477;-47
2023/10/12 01:36:57;;;;;;;2.22;1.60;;;;;;;20.32;49.86;101251.19;16115266;19;129844;-46
2023/10/12 01:42:21;;;;;;;5.47;1.73;;;;;;;20.33;50.02;101275.13;16117988;19;129645;-45
2023/10/12 01:47:55;;;;;;;3.08;1.60;;;;;;;20.33;50.14;101258.44;16112494;19;130570;-45
2023/10/12 01:53:25;;;;;;;2.70;1.50;;;;;;;20.32;50.13;101252.06;16113807;19;130157;-45
2023/10/12 01:58:51;;;;;;;2.13;1.55;;;;;;;20.31;50.01;101218.97;16113301;19;129559;-49
2023/10/12 02:04:13;;;;;;;2.67;1.38;;;;;;;20.31;50.11;101239.25;16109747;19;131063;-52
2023/10/12 02:09:35;;;;;;;2.65;1.77;;;;;;;20.29;49.69;101210.88;16112316;19;129816;-45
2023/10/12 02:14:57;;;;;;;1.65;1.33;;;;;;;20.29;49.96;101181.19;16112894;19;129760;-46
2023/10/12 02:20:19;;;;;;;2.25;1.50;;;;;;;20.29;50.14;101197.84;16110294;19;130234;-46
2023/10/12 02:25:50;;;;;;;1.88;1.58;;;;;;;20.28;50.09;101162.81;16112183;19;130205;-46
2023/10/12 02:31:13;;;;;;;2.75;1.40;;;;;;;20.28;49.72;101162.81;16111182;19;129489;-50
2023/10/12 02:36:36;;;;;;;3.13;1.50;;;;;;;20.27;50.04;101202.81;16106672;19;130434;-49
2023/10/12 02:47:42;;;;;;;2.72;1.30;;;;;;;20.26;50.06;101220.56;16106840;19;129993;-46
2023/10/12 02:53:12;;;;;;;2.28;1.60;;;;;;;20.26;49.98;101186.38;16109284;19;129910;-47
2023/10/12 02:58:34;;;;;;;1.60;1.30;;;;;;;20.25;49.92;101196.66;16105018;19;129999;-47
2023/10/12 03:03:56;;;;;;;3.42;1.67;;;;;;;20.26;49.82;101192.78;16108983;19;129670;-46
2023/10/12 03:09:25;;;;;;;1.65;1.40;;;;;;;20.25;50.05;101182.75;16108885;19;129987;-45
2023/10/12 03:14:51;;;;;;;2.20;1.42;;;;;;;20.24;49.97;101166.34;16107797;19;131255;-51
2023/10/12 03:20:20;;;;;;;2.47;1.13;;;;;;;20.24;49.99;101149.69;16105735;19;129392;-47
2023/10/12 03:25:43;;;;;;;2.67;1.48;;;;;;;20.23;49.79;101179.38;16106072;19;131114;-45
2023/10/12 03:31:23;;;;;;;2.00;1.42;;;;;;;20.23;50.11;101220.22;16113912;19;129836;-49
2023/10/12 03:36:48;;;;;;;2.13;1.27;;;;;;;20.22;49.87;101208.25;16110267;19;129421;-51
2023/10/12 03:42:12;;;;;;;2.63;1.33;;;;;;;20.22;50.10;101219.38;16113079;19;130242;-51
2023/10/12 03:48:02;;;;;;;2.17;1.43;;;;;;;20.21;50.09;101226.00;16113129;19;129773;-50
2023/10/12 03:53:30;;;;;;;2.08;1.50;;;;;;;20.21;49.83;101212.13;16125788;19;130824;-49
2023/10/12 03:59:02;;;;;;;1.60;1.50;;;;;;;20.21;50.32;101212.13;16127477;19;129276;-48
2023/10/12 04:04:34;;;;;;;2.50;1.70;;;;;;;20.20;50.33;101196.56;16122616;19;129076;-49
2023/10/12 04:10:13;;;;;;;2.40;1.70;;;;;;;20.20;50.22;101191.00;16127240;19;132361;-51
2023/10/12 04:21:23;;;;;;;1.92;1.70;;;;;;;20.20;49.96;101195.72;16118349;19;130185;-45
2023/10/12 04:27:06;;;;;;;2.33;1.77;;;;;;;20.19;50.30;101186.53;16118481;19;131274;-45
2023/10/12 04:33:14;;;;;;;2.95;1.70;;;;;;;20.19;50.17;101192.09;16117814;19;131355;-48
2023/10/12 04:38:22;;;;;;;1.70;1.45;;;;;;;20.19;50.23;101196.81;16115663;19;129276;-47
2023/10/12 04:43:54;;;;;;;3.35;1.77;;;;;;;20.19;50.31;101205.97;16117677;19;129533;-46
2023/10/12 04:54:58;;;;;;;2.95;1.88;;;;;;;20.20;49.97;101209.63;16116043;19;129764;-46
2023/10/12 05:00:34;;;;;;;2.53;1.75;;;;;;;20.19;49.90;101214.31;16108365;19;130355;-46
2023/10/12 05:06:09;;;;;;;4.05;1.77;;;;;;;20.18;50.15;101218.22;16116876;19;130592;-46
2023/10/12 05:11:32;;;;;;;2.72;1.75;;;;;;;20.17;50.28;101233.19;16113290;19;129682;-46
2023/10/12 05:16:54;;;;;;;2.25;1.92;;;;;;;20.17;50.20;101238.75;16110414;19;130327;-46
2023/10/12 05:22:16;;;;;;;4.90;1.80;;;;;;;20.15;50.20;101246.47;16111207;19;131003;-48
2023/10/12 05:27:39;;;;;;;3.38;2.20;;;;;;;20.12;50.27;101242.25;16115005;19;130394;-45
2023/10/12 05:33:05;;;;;;;5.97;2.38;;;;;;;20.13;50.41;101243.09;16115531;19;130380;-47
2023/10/12 05:38:34;;;;;;;7.88;2.60;;;;;;;20.17;50.27;101243.44;16109349;19;130985;-46
2023/10/12 05:43:57;;;;;;;6.82;3.10;;;;;;;20.18;50.60;101256.25;16116388;19;129488;-47
2023/10/12 05:49:23;;;;;;;15.27;4.22;;;;;;;20.20;50.28;101260.44;16109506;19;131943;-47
2023/10/12 05:54:45;;;;;;;13.50;4.00;;;;;;;20.23;50.74;101259.94;16112216;19;130822;-48
2023/10/12 06:00:11;;;;;;;14.38;4.28;;;;;;;20.24;50.66;101269.16;16107542;19;130616;-47
2023/10/12 06:05:34;;;;;;;11.98;4.07;;;;;;;20.24;50.54;101266.38;16115864;19;129868;-46
2023/10/12 06:10:56;;;;;;;12.48;3.75;;;;;;;20.25;50.58;101277.22;16112852;19;130464;-46
2023/10/12 06:16:20;;;;;;;11.77;4.00;;;;;;;20.25;50.58;101280.00;16111065;19;131508;-48
2023/10/12 06:21:43;;;;;;;13.05;4.53;;;;;;;20.25;50.39;101274.44;16110227;19;131265;-47
2023/10/12 06:32:46;;;;;;;10.38;3.92;;;;;;;20.24;50.61;101275.53;16111700;19;131594;-47
2023/10/12 06:38:23;;;;;;;10.48;3.90;;;;;;;20.23;50.47;101276.63;16111269;19;130808;-49
2023/10/12 06:49:07;;;;;;;9.85;3.55;;;;;;;20.21;50.64;101267.69;16110876;19;130597;-53
2023/10/12 06:54:33;;;;;;;7.43;3.40;;;;;;;20.22;50.77;101274.09;16114286;19;130861;-51
2023/10/12 07:05:20;;;;;;;6.60;3.33;;;;;;;20.24;50.84;101277.47;16117470;19;129288;-54
2023/10/12 07:10:52;;;;;;;8.23;3.40;;;;;;;20.25;50.78;101296.66;16109601;19;129562;-51
2023/10/12 07:16:20;;;;;;;6.57;3.00;;;;;;;20.27;50.88;101305.59;16113746;19;130096;-54
2023/10/12 07:21:43;;;;;;;8.82;3.45;;;;;;;20.27;51.04;101310.31;16113435;19;130181;-55
2023/10/12 07:27:11;;;;;;;11.07;3.90;;;;;;;20.29;50.99;101319.22;16119914;19;131934;-49
2023/10/12 07:32:38;;;;;;;7.20;3.22;;;;;;;20.30;50.74;101326.47;16129859;19;129549;-52
2023/10/12 07:38:05;;;;;;;6.05;3.10;;;;;;;20.32;51.03;101320.66;16127594;19;131240;-54
2023/10/12 07:43:32;;;;;;;6.68;3.28;;;;;;;20.32;51.01;101327.09;16128455;19;131438;-56
2023/10/12 07:49:10;;;;;;;5.88;3.17;;;;;;;20.34;50.62;101315.72;16131084;19;129474;-52
2023/10/12 07:55:16;;;;;;;5.55;3.10;;;;;;;20.35;50.94;101311.84;16127943;19;130807;-59
2023/10/12 08:05:59;;;;;;;7.50;3.13;;;;;;;20.37;50.81;101306.88;16127991;19;130135;-59
2023/10/12 08:11:31;;;;;;;8.45;3.20;;;;;;;20.38;50.78;101311.34;16124940;19;129413;-57
2023/10/12 08:22:36;;;;;;;6.97;2.97;;;;;;;20.41;50.88;101310.84;16127885;19;130299;-58
2023/10/12 08:28:06;;;;;;;6.85;3.22;;;;;;;20.41;50.70;101316.41;16127456;19;129715;-59
2023/10/12 08:39:09;;;;;;;4.28;2.60;;;;;;;20.42;50.53;101313.38;16122926;19;129833;-55
2023/10/12 08:44:34;;;;;;;5.93;2.67;;;;;;;20.41;50.86;101324.75;16121668;19;129526;-52
2023/10/12 08:55:31;;;;;;;6.40;2.90;;;;;;;20.42;50.72;101324.50;16122573;19;130991;-59
2023/10/12 09:06:53;;;;;;;6.22;2.70;;;;;;;20.44;50.64;101315.91;16121901;19;130911;-59
2023/10/12 09:12:19;;;;;;;9.05;2.60;;;;;;;20.44;50.98;101304.78;16123588;19;131135;-58
2023/10/12 09:17:42;;;;;;;7.13;2.78;;;;;;;20.46;51.06;101310.94;16120821;19;130415;-57
2023/10/12 09:23:16;;;;;;;6.67;2.50;;;;;;;20.46;50.70;101322.06;16117370;19;130768;-59
2023/10/12 09:39:35;;;;;;;6.20;2.53;;;;;;;20.49;50.67;101315.19;16117560;19;129538;-58
2023/10/12 09:45:10;;;;;;;4.35;2.40;;;;;;;20.50;50.80;101319.63;16115216;19;130388;-59
2023/10/12 09:50:55;;;;;;;5.78;2.30;;;;;;;20.49;50.83;101310.44;16118269;19;134802;-58
2023/10/12 09:56:24;;;;;;;;;;;;;;;20.47;50.65;101322.91;16114792;19;129859;-58
2023/10/12 10:01:50;;;;;;;5.43;2.53;;;;;;;20.49;50.54;101320.72;16114654;19;131084;-57
2023/10/12 10:07:26;;;;;;;3.88;2.38;;;;;;;20.49;50.62;101326.28;16119479;19;134788;-57
2023/10/12 10:12:48;;;;;;;8.60;2.38;;;;;;;20.44;50.87;101321.44;16117972;19;129872;-59
2023/10/12 10:18:16;;;;;;;6.10;2.30;;;;;;;20.44;50.85;101315.91;16119511;19;131664;-60
2023/10/12 10:23:48;;;;;;;8.38;2.83;;;;;;;20.43;51.00;101294.78;16114055;19;129495;-60
2023/10/12 10:29:17;;;;;;;6.30;2.10;;;;;;;20.44;50.65;101288.09;16115082;19;131553;-60
2023/10/12 10:34:41;;;;;;;5.65;2.22;;;;;;;20.45;50.82;101300.91;16118060;19;129850;-61
2023/10/12 10:40:07;;;;;;;7.25;2.80;;;;;;;20.47;50.70;101300.69;16112804;19;129587;-60
2023/10/12 10:45:30;;;;;;;9.05;2.97;;;;;;;20.49;50.56;101304.88;16112725;19;129987;-53
2023/10/12 10:50:56;;;;;;;7.25;3.20;;;;;;;20.51;50.66;101311.03;16110828;19;129851;-53
2023/10/12 10:56:36;;;;;;;5.28;2.80;;;;;;;20.55;50.63;101308.59;16112174;19;129604;-55
2023/10/12 11:01:59;;;;;;;7.05;3.45;;;;;;;20.58;50.33;101303.38;16122924;19;129540;-55
2023/10/12 11:07:21;;;;;;;6.25;2.72;;;;;;;20.64;50.53;101300.69;16129983;19;130967;-54
2023/10/12 11:12:43;;;;;;;7.38;3.33;;;;;;;20.68;50.72;101304.66;16128070;19;131757;-60
2023/10/12 11:18:15;;;;;;;8.45;3.33;;;;;;;20.71;50.48;101304.16;16127503;19;129824;-52
2023/10/12 11:23:37;;;;;;;7.30;3.15;;;;;;;20.72;50.80;101311.41;16130405;19;129518;-53
2023/10/12 11:29:06;;;;;;;6.57;3.00;;;;;;;20.74;50.71;101314.78;16128070;19;129355;-59
2023/10/12 11:34:33;;;;;;;4.68;3.15;;;;;;;20.70;51.10;101297.75;16127830;19;131028;-52
2023/10/12 11:39:57;;;;;;;5.22;2.90;;;;;;;20.70;50.61;101296.91;16122870;19;129862;-51
2023/10/12 11:45:19;;;;;;;8.18;3.67;;;;;;;20.69;50.91;101289.66;16122506;19;130130;-50
2023/10/12 11:50:41;;;;;;;4.82;2.80;;;;;;;20.68;51.09;101286.03;16116705;19;131520;-52
2023/10/12 11:56:49;;;;;;;7.50;3.20;;;;;;;20.68;51.04;101288.81;16120506;19;129559;-49
2023/10/12 12:01:54;;;;;;;5.90;3.10;;;;;;;20.67;50.98;101289.91;16116616;19;130610;-55
2023/10/12 12:07:16;;;;;;;6.95;3.20;;;;;;;20.69;50.89;101279.38;16123547;19;129778;-52
2023/10/12 12:12:38;;;;;;;7.30;3.10;;;;;;;20.69;50.98;101261.84;16118886;19;129660;-50
2023/10/12 12:18:04;;;;;;;6.10;2.80;;;;;;;20.70;50.98;101249.63;16122223;19;129882;-49
2023/10/12 12:23:27;;;;;;;6.32;3.10;;;;;;;20.70;50.47;101246.84;16122587;19;129627;-53
2023/10/12 12:29:03;;;;;;;8.52;3.30;;;;;;;20.71;50.57;101248.53;16117712;19;130738;-55
2023/10/12 12:34:41;;;;;;;7.38;3.80;;;;;;;20.69;50.70;101257.16;16118092;19;130809;-55
2023/10/12 12:45:45;;;;;;;6.38;3.50;;;;;;;20.66;50.72;101235.41;16119625;19;129658;-57
2023/10/12 12:51:11;;;;;;;7.85;3.50;;;;;;;20.65;50.72;101227.34;16118597;19;129951;-57
2023/10/12 12:56:35;;;;;;;;;;;;;;;20.60;50.90;101228.91;16123447;19;130233;-50
2023/10/12 13:01:59;;;;;;;6.90;4.05;;;;;;;20.62;50.75;101244.50;16122574;19;131216;-50
2023/10/12 13:07:22;;;;;;;6.10;3.38;;;;;;;20.60;50.88;101242.00;16116864;19;129792;-52
2023/10/12 13:12:44;;;;;;;6.88;3.63;;;;;;;20.59;50.61;101240.31;16118392;19;129318;-51
2023/10/12 13:18:15;;;;;;;9.27;3.83;;;;;;;20.57;50.91;101236.94;16118197;19;129573;-53
2023/10/12 13:23:37;;;;;;;8.90;4.00;;;;;;;20.58;50.54;101242.22;16119564;19;134074;-49
2023/10/12 13:29:01;;;;;;;5.47;3.60;;;;;;;20.60;50.85;101236.44;16118469;19;129549;-52
2023/10/12 13:34:23;;;;;;;9.60;3.78;;;;;;;20.60;50.68;101237.25;16113926;19;130794;-51
2023/10/12 13:39:45;;;;;;;5.88;3.53;;;;;;;20.58;51.05;101228.31;16115655;19;129298;-53
2023/10/12 13:45:12;;;;;;;7.85;3.67;;;;;;;20.58;50.75;101222.78;16112645;19;131953;-55
2023/10/12 13:50:34;;;;;;;6.80;3.40;;;;;;;20.56;50.76;101219.41;16114012;19;129818;-54
2023/10/12 13:55:57;;;;;;;7.10;3.63;;;;;;;20.55;50.76;101228.84;16114654;19;131468;-50
2023/10/12 14:01:21;;;;;;;10.02;3.38;;;;;;;20.53;50.85;101230.19;16110972;19;130920;-54
2023/10/12 14:06:43;;;;;;;6.05;3.47;;;;;;;20.49;50.91;101227.06;16112283;19;129960;-51
2023/10/12 14:12:06;;;;;;;5.72;3.35;;;;;;;20.49;51.19;101235.41;16112334;19;130838;-52
2023/10/12 14:17:28;;;;;;;6.97;3.40;;;;;;;20.48;50.91;101233.72;16108705;19;130736;-49
2023/10/12 14:22:50;;;;;;;5.75;3.10;;;;;;;20.46;50.85;101241.47;16113883;19;131365;-51
2023/10/12 14:28:18;;;;;;;9.67;3.90;;;;;;;20.42;51.01;101230.00;16107130;19;130490;-50
2023/10/12 14:33:40;;;;;;;10.52;3.90;;;;;;;20.43;50.95;101225.31;16106131;19;129728;-51
2023/10/12 14:39:04;;;;;;;8.45;3.38;;;;;;;20.42;50.93;101210.56;16108160;19;131691;-50
2023/10/12 14:44:27;;;;;;;6.10;3.33;;;;;;;20.41;51.22;101213.59;16108267;19;130262;-49
2023/10/12 14:49:50;;;;;;;6.90;3.53;;;;;;;20.40;51.06;101220.25;16111895;19;129606;-49
2023/10/12 14:55:12;;;;;;;6.03;3.53;;;;;;;20.40;51.03;101207.19;16107180;19;130893;-49
2023/10/12 15:00:35;;;;;;;9.75;3.13;;;;;;;20.39;51.25;101210.22;16105496;19;130253;-51
2023/10/12 15:06:02;;;;;;;6.57;3.35;;;;;;;20.38;50.95;101214.91;16106330;19;134011;-49
2023/10/12 15:11:25;;;;;;;5.72;2.95;;;;;;;20.37;50.88;101209.63;16103996;19;130960;-50
2023/10/12 15:16:48;;;;;;;7.18;3.38;;;;;;;20.36;50.99;101208.78;16107727;19;129454;-50
2023/10/12 15:22:12;;;;;;;5.20;2.83;;;;;;;20.34;50.91;101216.53;16103501;19;129580;-53
2023/10/12 15:27:36;;;;;;;6.90;3.65;;;;;;;20.35;50.86;101211.81;16106813;19;130400;-52
2023/10/12 15:32:59;;;;;;;6.18;2.83;;;;;;;20.34;51.29;101215.69;16106602;19;131866;-54
2023/10/12 15:38:21;;;;;;;6.25;3.20;;;;;;;20.34;50.86;101212.91;16097827;19;131843;-55
2023/10/12 15:43:43;;;;;;;6.50;3.08;;;;;;;20.31;51.18;101205.09;16093411;19;130508;-50
2023/10/12 15:49:06;;;;;;;6.82;2.97;;;;;;;20.28;51.43;101211.97;16118222;19;129613;-62
2023/10/12 15:54:31;;;;;;;6.45;3.45;;;;;;;20.28;51.27;101214.75;16114962;19;133664;-55
2023/10/12 15:59:54;;;;;;;8.63;3.27;;;;;;;20.29;51.95;101213.66;16127513;19;130364;-58
2023/10/12 16:05:16;;;;;;;10.18;3.65;;;;;;;20.32;51.83;101206.75;16124987;19;130447;-57
2023/10/12 16:10:38;;;;;;;12.60;4.18;;;;;;;20.32;51.81;101204.81;16125065;19;129935;-60
2023/10/12 16:16:11;;;;;;;11.80;4.57;;;;;;;20.34;51.63;101199.88;16119860;19;131449;-60
2023/10/12 16:21:35;;;;;;;8.75;4.07;;;;;;;20.33;51.84;101209.28;16121358;19;130071;-55
2023/10/12 16:27:00;;;;;;;17.88;4.15;;;;;;;20.34;51.90;101216.53;16122101;19;130868;-52
2023/10/12 16:32:23;;;;;;;24.58;10.02;;;;;;;20.38;51.92;101216.88;16122014;19;130804;-54
2023/10/12 16:37:49;;;;;;;35.63;15.60;;;;;;;20.43;52.41;101214.19;16119636;19;129827;-47
2023/10/12 16:43:14;;;;;;;60.58;25.52;;;;;;;20.49;53.35;101210.38;16115377;19;129861;-51
2023/10/12 16:48:36;;;;;;;;;;;;;;;20.51;53.99;101216.53;16114291;19;131257;-50
2023/10/12 16:54:03;;;;;;;50.25;23.58;;;;;;;20.56;54.35;101224.13;16118502;19;130298;-54
2023/10/12 16:59:25;;;;;;;54.33;25.45;;;;;;;20.57;54.38;101217.47;16115230;19;130413;-54
2023/10/12 17:04:53;;;;;;;59.78;27.08;;;;;;;20.56;54.79;101213.84;16115869;19;130189;-50
2023/10/12 17:10:18;;;;;;;53.05;22.52;;;;;;;20.57;55.19;101212.75;16117019;19;129647;-49
2023/10/12 17:15:41;;;;;;;57.30;25.77;;;;;;;20.59;55.30;101213.34;16114608;19;130304;-54
2023/10/12 17:21:03;;;;;;;90.18;43.88;;;;;;;20.63;55.93;101218.41;16118019;19;129340;-51
2023/10/12 17:26:26;;;;;;;94.07;40.13;;;;;;;20.66;55.93;101215.13;16112592;19;129737;-55
2023/10/12 17:31:49;;;;;;;75.35;40.47;;;;;;;20.67;55.91;101214.03;16114139;19;129968;-52
2023/10/12 17:37:11;;;;;;;69.65;34.55;;;;;;;20.64;55.59;101226.47;16103627;19;130942;-51
2023/10/12 17:42:33;;;;;;;73.63;33.03;;;;;;;20.62;56.19;101227.84;16030349;19;155741;-54
2023/10/12 17:47:55;;;;;;;67.15;29.95;;;;;;;20.61;55.91;101238.13;16101430;19;129318;-49
2023/10/12 17:53:17;;;;;;;73.00;31.58;;;;;;;20.63;56.20;101240.63;16109385;19;130247;-50
2023/10/12 17:58:39;;;;;;;71.65;30.40;;;;;;;20.65;56.94;101235.66;16108474;19;129941;-56
2023/10/12 18:04:03;;;;;;;66.45;31.60;;;;;;;20.67;57.09;101239.03;16099442;19;132750;-57
2023/10/12 18:09:26;;;;;;;63.17;29.38;;;;;;;20.69;57.35;101242.38;16111067;19;129419;-57
2023/10/12 18:14:48;;;;;;;61.78;27.23;;;;;;;20.70;57.38;101244.94;16112703;19;131344;-57
2023/10/12 18:20:14;;;;;;;68.72;27.88;;;;;;;20.73;57.45;101251.91;16108012;19;130451;-57
2023/10/12 18:25:38;;;;;;;90.90;34.80;;;;;;;20.75;57.84;101260.84;16105254;19;129542;-58
2023/10/12 18:31:05;;;;;;;84.25;30.40;;;;;;;20.79;57.95;101258.44;16112047;19;129804;-59
2023/10/12 18:36:28;;;;;;;59.90;24.05;;;;;;;20.78;57.37;101254.84;16109060;19;130788;-55
2023/10/12 18:41:50;;;;;;;54.40;20.15;;;;;;;20.75;57.11;101260.84;16107970;19;129697;-58
2023/10/12 18:47:15;;;;;;;53.75;18.23;;;;;;;20.73;56.68;101263.03;16109423;19;129729;-54
2023/10/12 18:52:39;;;;;;;51.53;17.27;;;;;;;20.72;56.75;101273.34;16111185;19;129963;-52
2023/10/12 18:58:01;;;;;;;49.10;16.63;;;;;;;20.72;56.54;101261.34;16111883;19;130054;-59
2023/10/12 19:03:23;;;;;;;40.10;14.80;;;;;;;20.71;56.08;101268.88;16113106;19;130035;-52
2023/10/12 19:08:45;;;;;;;36.00;13.75;;;;;;;20.72;55.94;101266.91;16109187;19;130270;-53
2023/10/12 19:14:07;;;;;;;40.78;13.88;;;;;;;20.71;56.26;101266.09;16103504;19;129616;-48
2023/10/12 19:19:29;;;;;;;30.08;11.75;;;;;;;20.71;55.69;101268.00;16110997;19;129546;-52
2023/10/12 19:24:52;;;;;;;28.83;10.80;;;;;;;20.71;55.67;101268.00;16124407;19;130943;-55
2023/10/12 19:30:14;;;;;;;31.63;11.73;;;;;;;20.72;55.78;101264.13;16121247;19;131184;-53
2023/10/12 19:35:39;;;;;;;30.20;11.27;;;;;;;20.73;55.19;101257.47;16121515;19;131223;-55
2023/10/12 19:41:07;;;;;;;28.73;10.83;;;;;;;20.72;55.16;101261.34;16122462;19;129511;-54
2023/10/12 19:46:29;;;;;;;25.58;10.10;;;;;;;20.69;55.18;101247.94;16121673;19;129349;-55
2023/10/12 19:51:52;;;;;;;23.73;9.73;;;;;;;20.66;55.00;101246.53;16117634;19;129875;-53
2023/10/12 19:57:15;;;;;;;23.75;8.52;;;;;;;20.65;54.75;101244.00;16123791;19;129459;-55
2023/10/12 20:02:41;;;;;;;26.65;8.57;;;;;;;20.64;55.14;101245.09;16119721;19;129849;-55
2023/10/12 20:08:07;;;;;;;18.48;7.82;;;;;;;20.63;54.92;101237.84;16119720;19;131328;-54
2023/10/12 20:13:33;;;;;;;20.60;7.82;;;;;;;20.62;54.84;101244.50;16119755;19;130668;-54
2023/10/12 20:18:57;;;;;;;20.80;7.90;;;;;;;20.60;54.57;101240.03;16116869;19;130312;-52
2023/10/12 20:24:19;;;;;;;14.73;6.57;;;;;;;20.59;54.50;101241.13;16115970;19;130751;-51
2023/10/12 20:29:41;;;;;;;18.42;7.25;;;;;;;20.58;54.62;101239.44;16116648;19;129591;-54
2023/10/12 20:35:04;;;;;;;11.80;6.22;;;;;;;20.57;54.34;101243.31;16116732;19;130293;-53
2023/10/12 20:40:26;;;;;;;20.38;7.05;;;;;;;20.55;54.79;101234.41;16116548;19;130243;-53
2023/10/12 20:45:57;;;;;;;17.92;6.85;;;;;;;20.56;54.44;101236.06;16112850;19;129198;-51
2023/10/12 20:51:19;;;;;;;17.52;6.03;;;;;;;20.53;54.29;101233.81;16115311;19;131250;-52
2023/10/12 20:56:41;;;;;;;20.88;6.10;;;;;;;20.51;54.42;101226.81;16111178;19;131353;-52
2023/10/12 21:02:12;;;;;;;17.05;6.07;;;;;;;20.53;54.23;101225.47;16111551;19;131242;-53
2023/10/12 21:07:34;;;;;;;16.83;4.80;;;;;;;20.52;54.22;101223.78;16111987;19;129743;-53
2023/10/12 21:12:56;;;;;;;11.82;4.60;;;;;;;20.52;54.44;101222.94;16114899;19;130470;-55
2023/10/12 21:18:34;;;;;;;13.13;4.93;;;;;;;20.51;54.55;101213.75;16112870;19;129764;-52
2023/10/12 21:24:05;;;;;;;16.83;4.90;;;;;;;20.50;54.27;101209.31;16114894;19;130278;-52
2023/10/12 21:29:32;;;;;;;11.93;4.38;;;;;;;20.48;54.20;101214.25;16111702;19;130855;-51
2023/10/12 21:34:54;;;;;;;11.32;4.47;;;;;;;20.47;54.30;101209.78;16115201;19;131782;-49
2023/10/12 21:45:53;;;;;;;12.15;4.55;;;;;;;20.44;54.09;101196.41;16113994;19;130204;-58
2023/10/12 21:51:15;;;;;;;8.63;3.92;;;;;;;20.43;54.28;101203.91;16113010;19;130666;-52
2023/10/12 21:56:36;;;;;;;13.35;4.00;;;;;;;20.43;54.18;101194.75;16113021;19;130676;-54
2023/10/12 22:02:01;;;;;;;7.75;4.05;;;;;;;20.40;54.34;101187.72;16111726;19;129553;-54
2023/10/12 22:07:38;;;;;;;9.57;3.75;;;;;;;20.40;54.32;101192.47;16112940;19;130342;-53
2023/10/12 22:13:08;;;;;;;8.45;3.67;;;;;;;20.40;54.34;101198.03;16115770;19;130280;-51
2023/10/12 22:18:32;;;;;;;7.78;3.50;;;;;;;20.40;54.04;101186.91;16110351;19;130666;-53
2023/10/12 22:23:54;;;;;;;7.38;3.70;;;;;;;20.40;54.10;101186.91;16112126;19;129828;-53
2023/10/12 22:29:19;;;;;;;6.65;3.17;;;;;;;20.38;54.28;101191.88;16111046;19;130185;-54
2023/10/12 22:34:41;;;;;;;;;;;;;;;20.35;53.87;101181.25;16114402;19;129938;-55
2023/10/12 22:40:38;;;;;;;7.80;3.03;;;;;;;20.37;53.99;101181.84;16109936;19;130437;-54
2023/10/12 22:45:52;;;;;;;5.82;3.08;;;;;;;20.34;54.24;101183.19;16109253;19;131019;-51
2023/10/12 22:51:14;;;;;;;4.68;2.72;;;;;;;20.34;54.03;101187.91;16111600;19;129440;-51
2023/10/12 22:56:36;;;;;;;4.97;2.20;;;;;;;20.35;53.87;101181.25;16108950;19;130423;-52
2023/10/12 23:01:58;;;;;;;6.38;3.33;;;;;;;20.35;54.01;101197.91;16110590;19;133675;-50
2023/10/12 23:07:20;;;;;;;6.07;2.53;;;;;;;20.34;53.70;101187.91;16108918;19;130651;-55
2023/10/12 23:12:42;;;;;;;5.88;2.50;;;;;;;20.34;54.13;101190.66;16109249;19;131062;-52
2023/10/12 23:23:29;;;;;;;6.80;2.47;;;;;;;20.32;53.90;101185.38;16107960;19;129976;-51
2023/10/12 23:28:54;;;;;;;5.75;2.60;;;;;;;20.31;54.09;101183.69;16105443;19;130849;-52
2023/10/12 23:39:52;;;;;;;5.07;2.42;;;;;;;20.30;53.88;101182.00;16105826;19;129738;-51
2023/10/12 23:45:26;;;;;;;5.07;2.25;;;;;;;20.30;53.93;101187.56;16103958;19;131217;-51
2023/10/12 23:51:04;;;;;;;3.75;2.08;;;;;;;20.31;53.60;101177.31;16107200;19;129932;-51
2023/10/12 23:56:29;;;;;;;4.45;2.15;;;;;;;20.29;53.78;101171.97;16104776;19;129678;-54
